Time;durP1;ratioP1;P1;durP2;ratioP2;P2;SDS_P1;SDS_P2;PMS_P1;PMS_P2;Temp;Humidity;BMP_temperature;BMP_pressure;BME280_temperature;BME280_humidity;BME280_pressure;Samples;Min_cycle;Max_cycle;Signal;HPM_P1;HPM_P2
2023/09/21 04:00:36;;;;;;;9.68;3.83;;;;;;;18.33;95.27;100224.41;5617952;31;90114;-57
2023/09/21 04:03:39;;;;;;;6.70;3.47;;;;;;;18.33;95.27;100224.41;5603636;31;34124;-58
2023/09/21 04:06:42;;;;;;;6.47;3.53;;;;;;;17.80;90.55;100223.31;5603077;31;33542;-58
2023/09/21 04:09:46;;;;;;;7.00;3.25;;;;;;;17.88;91.37;100222.47;5603172;31;32026;-58
2023/09/21 04:12:50;;;;;;;9.82;3.50;;;;;;;17.95;90.06;100230.84;5603067;31;34235;-58
2023/09/21 04:15:52;;;;;;;7.80;3.10;;;;;;;18.00;90.96;100232.56;5602864;31;33620;-58
2023/09/21 04:18:57;;;;;;;4.97;3.10;;;;;;;18.10;94.05;100229.44;5603037;31;33621;-58
2023/09/21 04:21:59;;;;;;;6.32;3.40;;;;;;;18.15;86.72;100228.44;5602903;31;31703;-58
2023/09/21 04:25:07;;;;;;;5.40;3.30;;;;;;;18.36;85.35;100233.81;5603284;31;33240;-59
2023/09/21 04:28:10;;;;;;;7.35;3.65;;;;;;;18.42;98.19;100230.53;5602565;31;33106;-58
2023/09/21 04:31:13;;;;;;;7.15;3.33;;;;;;;18.49;87.64;100233.50;5603297;31;31832;-58
2023/09/21 04:34:18;;;;;;;4.68;3.10;;;;;;;18.57;86.42;100226.38;5603307;31;34394;-58
2023/09/21 04:37:20;;;;;;;6.55;3.42;;;;;;;18.85;91.87;100225.75;5583658;31;33639;-58
2023/09/21 04:40:24;;;;;;;10.45;3.50;;;;;;;18.86;88.32;100219.19;5583203;31;33609;-57
2023/09/21 04:43:28;;;;;;;7.53;3.00;;;;;;;18.87;84.22;100216.13;5582992;31;34367;-58
2023/09/21 04:46:31;;;;;;;7.60;4.12;;;;;;;18.93;94.21;100217.47;5583110;31;33038;-57
2023/09/21 04:49:37;;;;;;;5.90;2.87;;;;;;;18.93;80.41;100220.19;5582840;32;34172;-57
2023/09/21 04:52:40;;;;;;;7.32;3.37;;;;;;;19.02;80.23;100236.38;5582765;32;33559;-57
2023/09/21 04:55:42;;;;;;;4.70;3.00;;;;;;;19.12;80.03;100241.34;5581037;32;32306;-58
2023/09/21 04:58:45;;;;;;;7.18;3.20;;;;;;;19.06;91.72;100247.37;5582315;31;31736;-58
2023/09/21 05:01:48;;;;;;;7.87;3.22;;;;;;;19.17;86.43;100243.03;5582122;31;34439;-58
2023/09/21 05:04:50;;;;;;;14.15;3.45;;;;;;;19.15;81.71;100239.91;5581873;31;33994;-58
2023/09/21 05:07:53;;;;;;;16.25;5.12;;;;;;;19.13;80.76;100240.22;5582798;31;34501;-58
2023/09/21 05:10:56;;;;;;;7.25;3.83;;;;;;;19.13;94.60;100239.44;5572942;32;34337;-57
2023/09/21 05:13:58;;;;;;;7.85;4.07;;;;;;;18.91;98.34;100232.56;5566632;32;33352;-57
2023/09/21 05:17:01;;;;;;;7.70;4.12;;;;;;;18.94;100.00;100231.84;5567676;32;33952;-57
2023/09/21 05:20:09;;;;;;;8.75;3.90;;;;;;;18.84;96.11;100243.97;5569032;32;34413;-57
2023/09/21 05:23:12;;;;;;;8.70;4.55;;;;;;;18.72;100.00;100244.75;5569323;32;34350;-56
2023/09/21 05:26:14;;;;;;;8.32;4.20;;;;;;;18.60;100.00;100249.34;5569002;32;34181;-57
2023/09/21 05:29:17;;;;;;;10.35;4.18;;;;;;;18.57;100.00;100231.78;5569207;32;34332;-58
2023/09/21 05:32:19;;;;;;;8.65;4.40;;;;;;;18.77;100.00;100232.88;5568852;32;33599;-57
2023/09/21 05:35:23;;;;;;;7.70;4.43;;;;;;;18.89;97.11;100234.81;5568865;32;33170;-57
2023/09/21 05:38:25;;;;;;;7.20;3.75;;;;;;;18.80;100.00;100234.13;5568822;32;33789;-57
2023/09/21 05:41:28;;;;;;;6.75;4.60;;;;;;;18.72;100.00;100239.31;5568034;32;33556;-56
2023/09/21 05:44:30;;;;;;;7.68;4.53;;;;;;;18.80;98.31;100236.81;5568416;32;34360;-57
2023/09/21 05:47:33;;;;;;;7.85;4.28;;;;;;;18.72;100.00;100243.97;5566724;32;33629;-57
2023/09/21 05:50:37;;;;;;;7.85;4.37;;;;;;;18.77;100.00;100241.81;5568692;32;33799;-58
2023/09/21 05:53:40;;;;;;;8.30;4.47;;;;;;;18.81;99.59;100244.66;5568733;31;31911;-57
2023/09/21 05:56:43;;;;;;;9.02;4.65;;;;;;;18.81;99.77;100243.84;5568475;32;33294;-57
2023/09/21 05:59:46;;;;;;;11.68;4.72;;;;;;;18.76;100.00;100245.66;5567191;32;33572;-57
2023/09/21 06:02:49;;;;;;;6.55;4.53;;;;;;;18.84;100.00;100240.44;5567666;32;34934;-58
2023/09/21 06:05:52;;;;;;;9.00;4.50;;;;;;;18.85;96.19;100251.00;5567973;32;34118;-57
2023/09/21 06:08:56;;;;;;;9.50;4.40;;;;;;;18.85;97.66;100248.28;5568341;32;34379;-58
2023/09/21 06:12:01;;;;;;;;;;;;;;;18.91;100.00;100237.97;5568726;32;33692;-58
2023/09/21 06:15:06;;;;;;;10.65;4.53;;;;;;;18.93;100.00;100241.91;5566353;32;34574;-57
2023/09/21 06:18:09;;;;;;;8.93;5.65;;;;;;;19.08;96.07;100239.69;5560435;32;33884;-57
2023/09/21 06:21:14;;;;;;;10.43;4.35;;;;;;;19.07;96.23;100236.13;5555410;32;33155;-58
2023/09/21 06:24:20;;;;;;;11.43;5.07;;;;;;;19.18;99.28;100234.56;5557290;32;34260;-56
2023/09/21 06:27:23;;;;;;;8.85;4.28;;;;;;;19.18;94.87;100245.44;5567456;32;34306;-57
2023/09/21 06:30:26;;;;;;;7.20;4.47;;;;;;;19.16;89.82;100239.53;5567157;32;33530;-57
2023/09/21 06:33:32;;;;;;;7.32;4.87;;;;;;;19.18;93.93;100248.16;5558569;32;33709;-56
2023/09/21 06:36:36;;;;;;;11.27;4.60;;;;;;;19.19;93.81;100252.44;5563535;32;33685;-57
2023/09/21 06:39:39;;;;;;;6.85;4.43;;;;;;;19.15;92.88;100243.41;5566067;32;33942;-57
2023/09/21 06:42:42;;;;;;;11.32;4.30;;;;;;;19.23;93.56;100234.31;5567161;32;33270;-58
2023/09/21 06:45:44;;;;;;;12.43;4.28;;;;;;;19.25;91.83;100236.72;5567512;32;33602;-57
2023/09/21 06:48:48;;;;;;;11.38;4.37;;;;;;;19.35;93.96;100221.84;5564801;32;33675;-57
2023/09/21 06:51:50;;;;;;;9.50;4.32;;;;;;;19.40;88.85;100219.69;5567276;32;33358;-57
2023/09/21 06:54:54;;;;;;;10.48;4.87;;;;;;;19.48;91.37;100209.81;5567446;32;33534;-57
2023/09/21 06:57:58;;;;;;;9.95;4.47;;;;;;;19.50;87.21;100207.53;5564113;32;34376;-56
2023/09/21 07:01:04;;;;;;;5.72;4.05;;;;;;;19.56;90.87;100210.81;5567200;32;34022;-58
2023/09/21 07:04:07;;;;;;;10.27;4.43;;;;;;;19.68;85.11;100208.09;5566802;32;33983;-56
2023/09/21 07:07:09;;;;;;;10.38;4.35;;;;;;;19.74;81.28;100205.94;5567260;32;33713;-55
2023/09/21 07:10:14;;;;;;;9.88;4.53;;;;;;;19.83;82.33;100212.78;5565636;32;34297;-56
2023/09/21 07:13:20;;;;;;;6.50;4.37;;;;;;;19.86;82.74;100208.56;5565745;32;33150;-55
2023/09/21 07:16:22;;;;;;;15.00;4.75;;;;;;;19.89;84.64;100202.44;5564069;32;33756;-56
2023/09/21 07:19:25;;;;;;;6.68;4.00;;;;;;;19.91;88.41;100200.97;5560414;32;32060;-55
2023/09/21 07:22:28;;;;;;;11.70;4.20;;;;;;;20.01;91.34;100196.16;5561089;32;34140;-56
2023/09/21 07:25:30;;;;;;;9.30;4.40;;;;;;;20.06;90.96;100199.41;5566825;32;34360;-56
2023/09/21 07:28:33;;;;;;;7.95;3.97;;;;;;;20.21;82.01;100206.03;5564248;32;34531;-56
2023/09/21 07:31:36;;;;;;;5.97;3.80;;;;;;;20.42;98.12;100194.88;5566750;32;33619;-55
2023/09/21 07:34:38;;;;;;;6.95;4.18;;;;;;;20.56;79.51;100197.19;5566408;32;33979;-55
2023/09/21 07:37:46;;;;;;;9.82;4.55;;;;;;;20.51;83.28;100200.19;5564488;32;33682;-56
2023/09/21 07:40:49;;;;;;;9.55;4.55;;;;;;;20.58;86.08;100208.53;5566109;32;33199;-56
2023/09/21 07:43:52;;;;;;;9.73;4.70;;;;;;;20.61;78.04;100214.06;5560273;32;33265;-55
2023/09/21 07:46:56;;;;;;;11.93;4.40;;;;;;;20.74;83.18;100206.59;5561758;32;34777;-57
2023/09/21 07:50:02;;;;;;;8.93;3.70;;;;;;;20.78;86.65;100202.03;5563962;32;33237;-56
2023/09/21 07:53:05;;;;;;;6.72;3.72;;;;;;;20.81;85.47;100212.22;5563385;32;33921;-55
2023/09/21 07:56:11;;;;;;;8.32;4.28;;;;;;;20.74;78.95;100208.53;5564804;32;33633;-55
2023/09/21 07:59:15;;;;;;;10.43;4.57;;;;;;;20.83;80.86;100217.31;5564547;32;33771;-55
2023/09/21 08:02:18;;;;;;;9.13;4.43;;;;;;;20.74;81.01;100214.78;5564203;32;33203;-56
2023/09/21 08:05:21;;;;;;;8.73;4.12;;;;;;;20.85;79.17;100218.53;5547142;32;34282;-58
2023/09/21 08:08:25;;;;;;;11.63;5.22;;;;;;;20.77;80.28;100240.53;5552087;32;33313;-57
2023/09/21 08:11:28;;;;;;;12.90;5.93;;;;;;;20.61;83.69;100238.59;5556327;32;34291;-58
2023/09/21 08:14:32;;;;;;;8.13;5.12;;;;;;;20.54;90.61;100226.72;5565263;32;33139;-58
2023/09/21 08:17:36;;;;;;;8.13;5.28;;;;;;;20.27;92.61;100215.53;5565704;32;33956;-57
2023/09/21 08:20:42;;;;;;;9.63;4.85;;;;;;;20.16;96.74;100217.16;5562666;32;33864;-58
2023/09/21 08:23:46;;;;;;;;;;;;;;;20.08;97.11;100226.28;5561704;32;33618;-58
2023/09/21 08:26:49;;;;;;;10.23;6.87;;;;;;;19.94;100.00;100241.09;5558679;32;33177;-58
2023/09/21 08:29:51;;;;;;;7.82;5.72;;;;;;;19.85;100.00;100242.38;5563741;32;34075;-58
2023/09/21 08:32:54;;;;;;;7.72;4.70;;;;;;;19.83;100.00;100255.50;5562530;32;33632;-58
2023/09/21 08:35:57;;;;;;;6.60;4.95;;;;;;;19.80;98.98;100256.19;5565383;32;34347;-58
2023/09/21 08:39:00;;;;;;;9.98;4.87;;;;;;;19.87;98.14;100259.16;5562065;32;33291;-58
2023/09/21 08:42:03;;;;;;;27.85;6.35;;;;;;;19.77;100.00;100268.59;5563866;32;33647;-58
2023/09/21 08:45:08;;;;;;;11.80;5.30;;;;;;;19.70;100.00;100266.44;5557122;32;33916;-58
2023/09/21 08:48:15;;;;;;;8.40;5.37;;;;;;;19.59;100.00;100262.56;5558675;32;33979;-58
2023/09/21 08:51:18;;;;;;;7.70;5.22;;;;;;;19.58;100.00;100254.78;5562136;32;33627;-58
2023/09/21 08:54:23;;;;;;;12.15;6.05;;;;;;;19.55;100.00;100245.38;5557667;32;33955;-58
2023/09/21 08:57:26;;;;;;;10.30;5.80;;;;;;;19.47;100.00;100240.87;5557503;32;34315;-58
2023/09/21 09:00:29;;;;;;;11.75;6.07;;;;;;;19.62;100.00;100229.25;5563693;32;34241;-58
2023/09/21 09:03:31;;;;;;;8.20;5.05;;;;;;;19.83;100.00;100229.09;5556579;32;33379;-58
2023/09/21 09:06:34;;;;;;;9.25;5.70;;;;;;;19.88;100.00;100228.06;5563540;32;33405;-57
2023/09/21 09:09:39;;;;;;;9.32;6.22;;;;;;;19.83;100.00;100220.16;5555195;32;33783;-58
2023/09/21 09:12:42;;;;;;;13.45;6.65;;;;;;;19.80;100.00;100218.12;5553942;32;34405;-58
2023/09/21 09:15:45;;;;;;;10.73;6.00;;;;;;;19.82;100.00;100202.25;5558103;32;33673;-58
2023/09/21 09:18:51;;;;;;;11.05;5.82;;;;;;;19.91;100.00;100195.53;5563693;32;33558;-57
2023/09/21 09:21:55;;;;;;;;;;;;;;;19.98;100.00;100203.09;5563716;32;33914;-58
2023/09/21 09:25:06;;;;;;;7.35;4.93;;;;;;;20.01;95.09;100202.41;5560191;32;33975;-58
2023/09/21 09:28:08;;;;;;;8.93;5.57;;;;;;;20.00;97.59;100200.00;5550432;32;33365;-58
2023/09/21 09:31:11;;;;;;;6.90;5.28;;;;;;;20.06;100.00;100196.69;5561842;32;33625;-58
2023/09/21 09:34:17;;;;;;;9.43;5.25;;;;;;;20.18;100.00;100191.19;5560716;32;33927;-58
2023/09/21 09:37:21;;;;;;;9.50;4.87;;;;;;;20.28;100.00;100189.09;5552784;32;32126;-58
2023/09/21 09:40:28;;;;;;;9.77;5.10;;;;;;;20.32;100.00;100189.97;5553698;32;33526;-58
2023/09/21 09:43:34;;;;;;;9.82;5.50;;;;;;;20.40;100.00;100191.75;5561605;32;34327;-58
2023/09/21 09:46:42;;;;;;;7.47;4.87;;;;;;;20.40;100.00;100184.38;5550323;32;33761;-58
2023/09/21 09:49:49;;;;;;;7.53;4.50;;;;;;;20.45;93.93;100190.69;5551162;32;33822;-58
2023/09/21 09:53:03;;;;;;;13.02;5.20;;;;;;;20.39;93.38;100182.75;5559875;32;33625;-58
2023/09/21 09:56:10;;;;;;;7.70;5.22;;;;;;;20.41;93.39;100180.50;5566771;32;33649;-58
2023/09/21 09:59:12;;;;;;;12.43;5.30;;;;;;;20.47;99.29;100189.19;5553495;32;34357;-58
2023/09/21 10:02:18;;;;;;;10.88;5.03;;;;;;;20.51;97.15;100181.94;5548109;32;34389;-58
2023/09/21 10:05:23;;;;;;;9.65;5.22;;;;;;;20.59;87.70;100172.78;5549048;32;33922;-57
2023/09/21 10:08:26;;;;;;;6.68;4.80;;;;;;;20.71;93.71;100177.34;5566515;32;34341;-58
2023/09/21 10:11:29;;;;;;;10.07;5.20;;;;;;;20.77;96.36;100175.16;5561970;32;33257;-58
2023/09/21 10:14:36;;;;;;;8.23;4.55;;;;;;;20.84;91.88;100173.38;5566780;32;34095;-58
2023/09/21 10:17:41;;;;;;;10.98;5.55;;;;;;;20.78;87.09;100177.50;5567042;32;33340;-58
2023/09/21 10:20:44;;;;;;;13.00;4.85;;;;;;;20.93;91.02;100170.47;5565718;32;34569;-58
2023/09/21 10:24:03;;;;;;;12.55;4.90;;;;;;;21.01;90.65;100166.75;5566389;32;33670;-58
2023/09/21 10:27:06;;;;;;;12.23;4.75;;;;;;;21.10;87.75;100153.72;5566062;32;33664;-55
2023/09/21 10:30:09;;;;;;;8.40;4.62;;;;;;;21.25;90.30;100160.25;5558009;32;33161;-56
2023/09/21 10:33:15;;;;;;;8.02;4.75;;;;;;;21.24;89.53;100147.75;5562146;32;33911;-54
2023/09/21 10:36:20;;;;;;;8.00;4.22;;;;;;;21.34;89.79;100149.13;5561959;32;34312;-55
2023/09/21 10:39:24;;;;;;;12.57;5.87;;;;;;;21.32;87.19;100149.50;5550246;32;33786;-56
2023/09/21 10:42:30;;;;;;;6.32;4.37;;;;;;;21.46;85.15;100145.53;5553509;32;33610;-55
2023/09/21 10:45:55;;;;;;;8.32;4.37;;;;;;;21.55;84.04;100140.62;5565177;32;33807;-55
2023/09/21 10:49:05;;;;;;;8.95;4.45;;;;;;;21.43;86.63;100138.84;5563333;32;33260;-55
2023/09/21 10:52:07;;;;;;;6.75;4.68;;;;;;;21.38;84.08;100128.22;5563577;32;33735;-56
2023/09/21 10:55:18;;;;;;;6.90;4.28;;;;;;;21.40;84.29;100122.41;5561421;32;33688;-55
2023/09/21 10:58:24;;;;;;;7.85;3.47;;;;;;;21.46;84.25;100124.50;5560842;32;32200;-56
2023/09/21 11:01:27;;;;;;;10.18;4.70;;;;;;;21.55;87.34;100118.78;5560907;32;33425;-55
2023/09/21 11:04:31;;;;;;;13.77;4.47;;;;;;;21.66;83.74;100116.28;5555723;32;33355;-55
2023/09/21 11:07:34;;;;;;;10.43;3.95;;;;;;;21.67;83.53;100102.28;5565100;32;33321;-56
2023/09/21 11:10:36;;;;;;;8.40;4.65;;;;;;;21.68;86.88;100098.37;5564624;32;33253;-56
2023/09/21 11:13:43;;;;;;;7.62;4.60;;;;;;;21.79;83.02;100088.47;5560679;32;33316;-56
2023/09/21 11:16:45;;;;;;;6.40;4.35;;;;;;;21.88;78.03;100080.03;5565339;32;33743;-55
2023/09/21 11:19:49;;;;;;;11.23;4.70;;;;;;;21.92;81.56;100072.72;5565960;32;34367;-55
2023/09/21 11:22:51;;;;;;;12.77;4.93;;;;;;;21.96;77.61;100076.28;5564181;32;34350;-56
2023/09/21 11:25:54;;;;;;;10.40;4.57;;;;;;;21.97;77.67;100060.69;5566494;32;34353;-55
2023/09/21 11:28:58;;;;;;;7.65;4.53;;;;;;;22.10;84.03;100062.09;5561027;32;33815;-56
2023/09/21 11:32:01;;;;;;;14.55;4.70;;;;;;;22.12;75.93;100058.97;5564778;32;35700;-55
2023/09/21 11:35:04;;;;;;;8.88;4.60;;;;;;;22.13;79.52;100052.38;5559871;32;33299;-58
2023/09/21 11:38:06;;;;;;;8.48;4.68;;;;;;;22.18;79.28;100041.94;5566379;32;33652;-58
2023/09/21 11:41:09;;;;;;;13.52;5.18;;;;;;;22.16;76.45;100033.34;5566101;32;34094;-58
2023/09/21 11:44:12;;;;;;;9.75;5.20;;;;;;;22.17;77.80;100029.47;5557261;32;32263;-58
2023/09/21 11:47:15;;;;;;;10.57;4.60;;;;;;;22.22;78.51;100026.44;5545754;32;33669;-58
2023/09/21 11:50:25;;;;;;;10.55;4.30;;;;;;;22.27;75.12;100022.59;5559597;32;33658;-58
2023/09/21 11:53:30;;;;;;;10.45;4.60;;;;;;;22.28;75.26;100014.03;5558405;32;34557;-58
2023/09/21 11:56:35;;;;;;;9.33;4.40;;;;;;;22.36;76.38;100014.13;5556699;32;34411;-58
2023/09/21 11:59:42;;;;;;;9.60;5.12;;;;;;;22.44;76.46;99994.75;5561270;32;33212;-58
2023/09/21 12:02:45;;;;;;;6.22;4.20;;;;;;;22.61;74.85;99998.06;5552224;32;33293;-58
2023/09/21 12:05:48;;;;;;;13.55;4.93;;;;;;;22.60;76.08;99996.50;5547660;32;34304;-58
2023/09/21 12:08:51;;;;;;;11.25;4.00;;;;;;;22.63;73.53;99990.31;5557949;32;34384;-58
2023/09/21 12:11:58;;;;;;;9.00;5.18;;;;;;;22.75;74.54;99987.34;5560606;32;33870;-57
2023/09/21 12:15:00;;;;;;;7.40;4.53;;;;;;;22.80;73.16;99984.28;5554622;32;34793;-58
2023/09/21 12:18:04;;;;;;;13.82;4.95;;;;;;;22.76;72.25;99977.97;5553865;32;33784;-59
2023/09/21 12:21:07;;;;;;;6.85;4.50;;;;;;;22.74;73.57;99983.03;5554105;32;33812;-58
2023/09/21 12:24:10;;;;;;;12.43;4.90;;;;;;;22.78;73.08;99972.94;5554851;32;33303;-58
2023/09/21 12:27:13;;;;;;;10.55;5.25;;;;;;;22.82;72.29;99965.56;5560725;32;34405;-58
2023/09/21 12:30:17;;;;;;;7.45;5.00;;;;;;;22.84;73.83;99967.91;5563967;32;33674;-58
2023/09/21 12:33:22;;;;;;;9.77;5.45;;;;;;;22.89;74.39;99962.91;5554967;32;34835;-58
2023/09/21 12:36:28;;;;;;;;;;;;;;;22.89;74.98;99949.25;5564459;32;34177;-58
2023/09/21 12:39:45;;;;;;;10.57;5.30;;;;;;;22.93;73.97;99947.34;5555889;32;33929;-58
2023/09/21 12:42:48;;;;;;;8.80;5.75;;;;;;;22.93;74.72;99952.03;5561100;32;34021;-58
2023/09/21 12:45:51;;;;;;;9.70;5.43;;;;;;;23.01;72.77;99941.97;5558942;32;33320;-57
2023/09/21 12:48:54;;;;;;;11.85;6.03;;;;;;;23.06;73.92;99938.91;5557266;32;32214;-57
2023/09/21 12:51:56;;;;;;;10.95;5.95;;;;;;;23.13;73.81;99938.97;5549071;32;34174;-57
2023/09/21 12:55:00;;;;;;;12.05;5.97;;;;;;;23.07;72.62;99929.53;5553669;32;32163;-57
2023/09/21 12:58:06;;;;;;;9.70;5.85;;;;;;;23.08;73.12;99934.63;5566324;32;33475;-58
2023/09/21 13:01:09;;;;;;;10.32;5.87;;;;;;;23.18;71.42;99927.72;5567830;32;33269;-57
2023/09/21 13:04:11;;;;;;;11.12;6.50;;;;;;;23.25;72.38;99922.31;5568337;32;33635;-57
2023/09/21 13:07:14;;;;;;;9.45;5.62;;;;;;;23.19;72.37;99916.38;5567385;32;33742;-56
2023/09/21 13:10:20;;;;;;;13.62;6.57;;;;;;;23.25;72.33;99911.38;5561089;32;33741;-56
2023/09/21 13:13:23;;;;;;;12.45;6.18;;;;;;;23.28;73.26;99915.28;5551841;32;33645;-56
2023/09/21 13:16:26;;;;;;;11.50;6.18;;;;;;;23.26;73.26;99896.50;5560307;32;33717;-57
2023/09/21 13:19:32;;;;;;;11.48;6.03;;;;;;;23.30;73.20;99885.59;5565282;32;33754;-57
2023/09/21 13:22:34;;;;;;;21.00;7.03;;;;;;;23.38;73.62;99895.47;5554346;32;34374;-56
2023/09/21 13:25:37;;;;;;;11.00;6.20;;;;;;;23.43;72.75;99895.09;5551128;32;34336;-58
2023/09/21 13:28:40;;;;;;;11.75;5.90;;;;;;;23.42;72.06;99888.06;5552813;32;33368;-56
2023/09/21 13:31:43;;;;;;;12.95;6.35;;;;;;;23.61;71.02;99892.50;5556188;32;34330;-57
2023/09/21 13:34:46;;;;;;;15.07;6.80;;;;;;;23.58;72.03;99879.59;5567732;32;34360;-57
2023/09/21 13:37:49;;;;;;;11.85;7.60;;;;;;;23.60;72.16;99874.50;5564308;32;34481;-57
2023/09/21 13:40:51;;;;;;;15.20;7.45;;;;;;;23.53;71.24;99875.22;5558528;32;34485;-57
2023/09/21 13:43:54;;;;;;;21.20;6.03;;;;;;;23.51;71.61;99877.59;5556206;32;34399;-56
2023/09/21 13:46:59;;;;;;;9.30;5.85;;;;;;;23.60;71.38;99874.50;5558296;32;33660;-57
2023/09/21 13:50:02;;;;;;;12.80;5.75;;;;;;;23.73;72.10;99858.59;5554793;32;33707;-57
2023/09/21 13:53:04;;;;;;;17.65;6.43;;;;;;;23.76;72.04;99863.31;5556058;32;33651;-57
2023/09/21 13:56:07;;;;;;;16.42;6.60;;;;;;;23.83;71.90;99868.81;5554415;32;33490;-56
2023/09/21 13:59:09;;;;;;;13.32;6.43;;;;;;;23.87;72.15;99858.66;5560858;32;33689;-57
2023/09/21 14:02:13;;;;;;;15.35;8.15;;;;;;;23.88;69.96;99855.56;5560043;32;33250;-56
2023/09/21 14:05:21;;;;;;;13.57;6.28;;;;;;;23.90;69.94;99846.94;5557794;32;33366;-58
2023/09/21 14:08:24;;;;;;;14.30;5.72;;;;;;;23.90;69.16;99842.25;5553921;32;33650;-57
2023/09/21 14:11:27;;;;;;;12.15;5.30;;;;;;;23.88;68.19;99847.34;5554956;32;33302;-58
2023/09/21 14:14:29;;;;;;;13.85;5.57;;;;;;;23.92;68.30;99841.87;5565770;32;33364;-56
2023/09/21 14:17:33;;;;;;;10.38;5.45;;;;;;;23.87;69.56;99842.25;5564295;32;34336;-57
2023/09/21 14:20:35;;;;;;;11.85;5.50;;;;;;;23.87;69.96;99831.28;5561051;32;32888;-57
2023/09/21 14:23:38;;;;;;;17.52;6.10;;;;;;;23.90;70.21;99842.25;5561021;32;32327;-56
2023/09/21 14:26:40;;;;;;;8.80;5.05;;;;;;;23.91;72.45;99832.13;5562200;32;33308;-57
2023/09/21 14:29:43;;;;;;;10.10;5.28;;;;;;;23.92;69.81;99830.94;5560540;32;34468;-57
2023/09/21 14:32:46;;;;;;;13.52;5.57;;;;;;;23.95;67.46;99830.19;5552772;32;34367;-56
2023/09/21 14:35:49;;;;;;;10.85;4.95;;;;;;;24.00;69.37;99826.28;5561867;32;33303;-57
2023/09/21 14:38:51;;;;;;;14.25;4.72;;;;;;;23.96;67.77;99817.25;5560562;32;33631;-56
2023/09/21 14:41:54;;;;;;;13.15;4.93;;;;;;;23.97;67.29;99816.09;5559484;32;33715;-57
2023/09/21 14:44:56;;;;;;;13.02;4.70;;;;;;;23.96;69.29;99807.09;5556931;32;33786;-56
2023/09/21 14:47:58;;;;;;;14.45;5.40;;;;;;;23.99;67.54;99805.56;5561162;32;33749;-59
2023/09/21 14:51:01;;;;;;;16.95;5.25;;;;;;;24.00;67.04;99810.63;5562213;32;33614;-59
2023/09/21 14:54:04;;;;;;;15.23;5.30;;;;;;;23.99;66.35;99806.31;5565106;32;33762;-59
2023/09/21 14:57:07;;;;;;;28.17;5.65;;;;;;;23.97;66.85;99810.63;5554333;32;33727;-59
2023/09/21 15:00:12;;;;;;;19.37;4.65;;;;;;;23.97;68.10;99797.69;5546897;32;33734;-58
2023/09/21 15:03:15;;;;;;;10.30;5.43;;;;;;;23.95;67.50;99797.31;5548720;32;33860;-59
2023/09/21 15:06:18;;;;;;;12.20;4.40;;;;;;;23.98;66.81;99793.03;5548576;32;33649;-58
2023/09/21 15:09:21;;;;;;;12.25;4.22;;;;;;;23.96;65.58;99782.47;5548386;32;33730;-57
2023/09/21 15:12:23;;;;;;;11.10;4.60;;;;;;;23.94;66.58;99781.25;5548897;32;34388;-57
2023/09/21 15:15:26;;;;;;;14.87;5.30;;;;;;;23.94;66.93;99770.31;5547867;32;34413;-58
2023/09/21 15:18:28;;;;;;;8.82;4.20;;;;;;;23.91;67.34;99774.63;5549069;32;34396;-58
2023/09/21 15:21:31;;;;;;;32.20;4.85;;;;;;;23.92;64.44;99770.72;5548609;32;33740;-58
2023/09/21 15:24:34;;;;;;;10.60;4.07;;;;;;;23.95;65.29;99759.00;5548861;32;34436;-58
2023/09/21 15:27:36;;;;;;;13.93;5.40;;;;;;;23.88;65.87;99759.75;5548502;32;34347;-58
2023/09/21 15:30:40;;;;;;;9.98;4.57;;;;;;;23.89;64.26;99753.09;5548531;32;33697;-58
2023/09/21 15:33:42;;;;;;;10.60;4.57;;;;;;;23.88;64.85;99746.06;5548480;32;33894;-58
2023/09/21 15:36:45;;;;;;;10.05;4.30;;;;;;;23.89;64.73;99741.37;5546953;32;33936;-58
2023/09/21 15:39:48;;;;;;;14.02;3.92;;;;;;;23.91;64.84;99731.63;5548172;32;33626;-58
2023/09/21 15:42:51;;;;;;;11.45;4.15;;;;;;;23.84;65.18;99736.25;5547175;32;33484;-58
2023/09/21 15:45:53;;;;;;;8.43;4.00;;;;;;;23.79;65.18;99726.47;5548044;32;33601;-58
2023/09/21 15:48:56;;;;;;;7.95;4.05;;;;;;;23.77;65.31;99725.28;5547596;32;33738;-58
2023/09/21 15:51:59;;;;;;;10.13;4.32;;;;;;;23.74;65.02;99717.84;5548368;32;33683;-58
2023/09/21 15:55:04;;;;;;;10.80;4.43;;;;;;;23.79;64.89;99720.22;5547797;32;33222;-58
2023/09/21 15:58:06;;;;;;;9.38;4.18;;;;;;;23.72;64.80;99720.19;5547932;32;33770;-58
2023/09/21 16:01:09;;;;;;;11.77;4.72;;;;;;;23.72;64.39;99723.72;5548452;32;33822;-58
2023/09/21 16:04:14;;;;;;;11.98;4.45;;;;;;;23.70;64.97;99723.31;5547358;32;34401;-58
2023/09/21 16:07:17;;;;;;;11.25;4.97;;;;;;;23.64;65.62;99733.03;5547405;32;34337;-58
2023/09/21 16:10:20;;;;;;;9.52;4.20;;;;;;;23.58;65.60;99732.63;5547861;32;33694;-58
2023/09/21 16:13:22;;;;;;;14.15;4.07;;;;;;;23.55;65.57;99730.66;5547401;32;33646;-60
2023/09/21 16:16:25;;;;;;;10.77;4.80;;;;;;;23.52;66.36;99733.38;5547872;32;33717;-56
2023/09/21 16:19:28;;;;;;;10.82;4.07;;;;;;;23.47;66.19;99728.25;5548319;32;33763;-55
2023/09/21 16:22:30;;;;;;;12.93;4.80;;;;;;;23.40;67.68;99726.25;5547868;32;33727;-56
2023/09/21 16:25:33;;;;;;;8.70;4.22;;;;;;;23.35;67.40;99727.41;5550016;32;34442;-55
2023/09/21 16:28:35;;;;;;;9.38;4.97;;;;;;;23.31;68.22;99723.88;5566794;32;34363;-56
2023/09/21 16:31:38;;;;;;;8.85;4.50;;;;;;;23.27;68.55;99716.81;5566550;32;34437;-56
2023/09/21 16:34:40;;;;;;;8.98;4.50;;;;;;;23.25;71.44;99722.69;5567073;32;34448;-55
2023/09/21 16:37:43;;;;;;;9.18;4.35;;;;;;;23.22;69.63;99720.72;5567441;32;34489;-55
2023/09/21 16:40:46;;;;;;;9.13;4.37;;;;;;;23.19;70.40;99716.00;5567278;32;33585;-55
2023/09/21 16:43:48;;;;;;;10.55;5.03;;;;;;;23.16;71.91;99714.81;5567409;32;33663;-55
2023/09/21 16:46:51;;;;;;;7.60;4.35;;;;;;;23.12;72.40;99715.97;5566743;32;33649;-56
2023/09/21 16:49:54;;;;;;;11.60;4.87;;;;;;;23.08;71.27;99713.19;5566859;32;33647;-56
2023/09/21 16:52:57;;;;;;;11.20;4.80;;;;;;;23.07;71.88;99710.84;5566244;32;34332;-57
2023/09/21 16:55:59;;;;;;;11.23;5.28;;;;;;;23.05;72.01;99710.44;5567233;32;33630;-55
2023/09/21 16:59:02;;;;;;;8.65;4.70;;;;;;;23.02;70.64;99711.22;5567007;32;34308;-55
2023/09/21 17:02:04;;;;;;;12.70;5.15;;;;;;;23.02;70.58;99711.22;5566475;32;34360;-56
2023/09/21 17:05:07;;;;;;;14.43;5.12;;;;;;;23.00;71.43;99708.84;5566104;32;33812;-55
2023/09/21 17:08:10;;;;;;;13.27;5.47;;;;;;;23.00;71.41;99700.62;5568851;32;33836;-56
2023/09/21 17:11:12;;;;;;;12.80;5.03;;;;;;;23.00;70.36;99703.37;5568946;32;33351;-57
2023/09/21 17:14:16;;;;;;;11.20;4.55;;;;;;;23.02;70.66;99703.00;5568743;32;33685;-55
2023/09/21 17:17:21;;;;;;;13.80;5.12;;;;;;;23.03;69.84;99708.06;5569421;32;33648;-56
2023/09/21 17:20:24;;;;;;;;;;;;;;;23.02;68.95;99705.75;5569760;32;33658;-55
2023/09/21 17:23:26;;;;;;;10.82;5.53;;;;;;;23.04;69.27;99697.91;5569369;32;33931;-55
2023/09/21 17:26:29;;;;;;;12.93;5.25;;;;;;;23.05;69.47;99699.50;5569156;32;33694;-55
2023/09/21 17:29:32;;;;;;;9.80;4.82;;;;;;;23.05;69.37;99700.28;5568961;32;33634;-56
2023/09/21 17:32:34;;;;;;;13.60;4.97;;;;;;;23.06;68.09;99696.37;5569290;32;33622;-57
